sensor_id;sensor_type;location;lat;lon;timestamp;temperature;humidity
16829;DHT22;8531;48.078;11.968;2022-12-10T00:01:16;1.30;99.90
16829;DHT22;8531;48.078;11.968;2022-12-10T00:03:43;1.30;99.90
16829;DHT22;8531;48.078;11.968;2022-12-10T00:06:15;1.40;99.90
16829;DHT22;8531;48.078;11.968;2022-12-10T00:08:41;1.30;99.90
16829;DHT22;8531;48.078;11.968;2022-12-10T00:11:10;1.30;99.90
16829;DHT22;8531;48.078;11.968;2022-12-10T00:13:36;1.20;99.90
16829;DHT22;8531;48.078;11.968;2022-12-10T00:16:05;1.20;99.90
16829;DHT22;8531;48.078;11.968;2022-12-10T00:18:31;1.30;99.90
16829;DHT22;8531;48.078;11.968;2022-12-10T00:20:57;1.20;99.90
16829;DHT22;8531;48.078;11.968;2022-12-10T00:23:23;1.10;99.90
16829;DHT22;8531;48.078;11.968;2022-12-10T00:25:49;1.10;99.90
16829;DHT22;8531;48.078;11.968;2022-12-10T00:28:15;1.20;99.90
16829;DHT22;8531;48.078;11.968;2022-12-10T00:30:41;1.30;99.90
16829;DHT22;8531;48.078;11.968;2022-12-10T00:33:06;1.30;99.90
16829;DHT22;8531;48.078;11.968;2022-12-10T00:35:35;1.30;99.90
16829;DHT22;8531;48.078;11.968;2022-12-10T00:38:02;1.40;99.90
16829;DHT22;8531;48.078;11.968;2022-12-10T00:40:27;1.40;99.90
16829;DHT22;8531;48.078;11.968;2022-12-10T00:42:53;1.40;99.90
16829;DHT22;8531;48.078;11.968;2022-12-10T00:45:19;1.40;99.90
16829;DHT22;8531;48.078;11.968;2022-12-10T00:47:44;1.30;99.90
16829;DHT22;8531;48.078;11.968;2022-12-10T00:50:10;1.20;99.90
16829;DHT22;8531;48.078;11.968;2022-12-10T00:52:36;1.20;99.90
16829;DHT22;8531;48.078;11.968;2022-12-10T00:55:01;1.20;99.90
16829;DHT22;8531;48.078;11.968;2022-12-10T00:57:27;1.20;99.90
16829;DHT22;8531;48.078;11.968;2022-12-10T00:59:53;1.10;99.90
16829;DHT22;8531;48.078;11.968;2022-12-10T01:02:19;1.10;99.90
16829;DHT22;8531;48.078;11.968;2022-12-10T01:04:44;1.10;99.90
16829;DHT22;8531;48.078;11.968;2022-12-10T01:07:10;1.10;99.90
16829;DHT22;8531;48.078;11.968;2022-12-10T01:09:36;1.30;99.90
16829;DHT22;8531;48.078;11.968;2022-12-10T01:12:03;1.30;99.90
16829;DHT22;8531;48.078;11.968;2022-12-10T01:14:31;1.20;99.90
16829;DHT22;8531;48.078;11.968;2022-12-10T01:17:00;1.20;99.90
16829;DHT22;8531;48.078;11.968;2022-12-10T01:19:28;1.20;99.90
16829;DHT22;8531;48.078;11.968;2022-12-10T01:21:54;1.20;99.90
16829;DHT22;8531;48.078;11.968;2022-12-10T01:24:21;1.30;99.90
16829;DHT22;8531;48.078;11.968;2022-12-10T01:26:47;1.30;99.90
16829;DHT22;8531;48.078;11.968;2022-12-10T01:29:13;1.30;99.90
16829;DHT22;8531;48.078;11.968;2022-12-10T01:31:39;1.20;99.90
16829;DHT22;8531;48.078;11.968;2022-12-10T01:34:07;1.20;99.90
16829;DHT22;8531;48.078;11.968;2022-12-10T01:36:37;1.20;99.90
16829;DHT22;8531;48.078;11.968;2022-12-10T01:39:05;1.20;99.90
16829;DHT22;8531;48.078;11.968;2022-12-10T01:41:34;1.20;99.90
16829;DHT22;8531;48.078;11.968;2022-12-10T01:46:55;1.10;99.90
16829;DHT22;8531;48.078;11.968;2022-12-10T01:49:24;1.10;99.90
16829;DHT22;8531;48.078;11.968;2022-12-10T01:51:53;1.10;99.90
16829;DHT22;8531;48.078;11.968;2022-12-10T01:54:27;1.10;99.90
16829;DHT22;8531;48.078;11.968;2022-12-10T01:57:02;1.10;99.90
16829;DHT22;8531;48.078;11.968;2022-12-10T01:59:29;1.10;99.90
16829;DHT22;8531;48.078;11.968;2022-12-10T02:07:46;1.20;99.90
16829;DHT22;8531;48.078;11.968;2022-12-10T02:10:30;1.10;99.90
16829;DHT22;8531;48.078;11.968;2022-12-10T02:13:23;1.20;99.90
16829;DHT22;8531;48.078;11.968;2022-12-10T02:15:58;1.30;99.90
16829;DHT22;8531;48.078;11.968;2022-12-10T02:21:41;1.40;99.90
16829;DHT22;8531;48.078;11.968;2022-12-10T02:24:11;1.50;99.90
16829;DHT22;8531;48.078;11.968;2022-12-10T02:29:26;1.40;99.90
16829;DHT22;8531;48.078;11.968;2022-12-10T02:32:09;1.40;99.90
16829;DHT22;8531;48.078;11.968;2022-12-10T02:34:42;1.40;99.90
16829;DHT22;8531;48.078;11.968;2022-12-10T02:37:22;1.50;99.90
16829;DHT22;8531;48.078;11.968;2022-12-10T02:39:52;1.50;99.90
16829;DHT22;8531;48.078;11.968;2022-12-10T02:42:20;1.50;99.90
16829;DHT22;8531;48.078;11.968;2022-12-10T02:44:48;1.50;99.90
16829;DHT22;8531;48.078;11.968;2022-12-10T02:47:16;1.50;99.90
16829;DHT22;8531;48.078;11.968;2022-12-10T02:49:46;1.50;99.90
16829;DHT22;8531;48.078;11.968;2022-12-10T02:52:14;1.50;99.90
16829;DHT22;8531;48.078;11.968;2022-12-10T02:54:43;1.40;99.90
16829;DHT22;8531;48.078;11.968;2022-12-10T03:02:53;1.40;99.90
16829;DHT22;8531;48.078;11.968;2022-12-10T03:05:57;1.40;99.90
16829;DHT22;8531;48.078;11.968;2022-12-10T03:08:24;1.30;99.90
16829;DHT22;8531;48.078;11.968;2022-12-10T03:11:14;1.40;99.90
16829;DHT22;8531;48.078;11.968;2022-12-10T03:14:27;1.50;99.90
16829;DHT22;8531;48.078;11.968;2022-12-10T03:16:38;1.40;99.90
16829;DHT22;8531;48.078;11.968;2022-12-10T03:19:16;1.40;99.90
16829;DHT22;8531;48.078;11.968;2022-12-10T03:21:43;1.20;99.90
16829;DHT22;8531;48.078;11.968;2022-12-10T03:24:10;1.20;99.90
16829;DHT22;8531;48.078;11.968;2022-12-10T03:26:40;1.20;99.90
16829;DHT22;8531;48.078;11.968;2022-12-10T03:29:09;1.10;99.90
16829;DHT22;8531;48.078;11.968;2022-12-10T03:31:38;1.20;99.90
16829;DHT22;8531;48.078;11.968;2022-12-10T03:34:05;1.20;99.90
16829;DHT22;8531;48.078;11.968;2022-12-10T03:36:32;1.20;99.90
16829;DHT22;8531;48.078;11.968;2022-12-10T03:38:59;1.20;99.90
16829;DHT22;8531;48.078;11.968;2022-12-10T03:41:25;1.10;99.90
16829;DHT22;8531;48.078;11.968;2022-12-10T03:43:56;1.10;99.90
16829;DHT22;8531;48.078;11.968;2022-12-10T03:46:24;1.10;99.90
16829;DHT22;8531;48.078;11.968;2022-12-10T03:48:51;1.20;99.90
16829;DHT22;8531;48.078;11.968;2022-12-10T03:51:17;1.10;99.90
16829;DHT22;8531;48.078;11.968;2022-12-10T03:53:43;1.10;99.90
16829;DHT22;8531;48.078;11.968;2022-12-10T03:56:09;1.10;99.90
16829;DHT22;8531;48.078;11.968;2022-12-10T03:58:35;1.10;99.90
16829;DHT22;8531;48.078;11.968;2022-12-10T04:01:02;1.10;99.90
16829;DHT22;8531;48.078;11.968;2022-12-10T04:03:28;1.10;99.90
16829;DHT22;8531;48.078;11.968;2022-12-10T04:05:53;1.10;99.90
16829;DHT22;8531;48.078;11.968;2022-12-10T04:08:19;1.10;99.90
16829;DHT22;8531;48.078;11.968;2022-12-10T04:10:45;1.10;99.90
16829;DHT22;8531;48.078;11.968;2022-12-10T04:13:10;1.10;99.90
16829;DHT22;8531;48.078;11.968;2022-12-10T04:15:56;1.10;99.90
16829;DHT22;8531;48.078;11.968;2022-12-10T04:18:40;1.00;99.90
16829;DHT22;8531;48.078;11.968;2022-12-10T04:21:06;1.00;99.90
16829;DHT22;8531;48.078;11.968;2022-12-10T04:23:50;0.90;99.90
16829;DHT22;8531;48.078;11.968;2022-12-10T04:26:34;0.90;99.90
16829;DHT22;8531;48.078;11.968;2022-12-10T04:29:29;0.90;99.90
16829;DHT22;8531;48.078;11.968;2022-12-10T04:31:56;1.00;99.90
16829;DHT22;8531;48.078;11.968;2022-12-10T04:34:23;0.90;99.90
16829;DHT22;8531;48.078;11.968;2022-12-10T04:36:50;0.90;99.90
16829;DHT22;8531;48.078;11.968;2022-12-10T04:39:16;0.90;99.90
16829;DHT22;8531;48.078;11.968;2022-12-10T04:41:43;1.00;99.90
16829;DHT22;8531;48.078;11.968;2022-12-10T04:44:09;1.00;99.90
16829;DHT22;8531;48.078;11.968;2022-12-10T04:46:35;1.00;99.90
16829;DHT22;8531;48.078;11.968;2022-12-10T04:49:01;1.00;99.90
16829;DHT22;8531;48.078;11.968;2022-12-10T04:51:27;1.00;99.90
16829;DHT22;8531;48.078;11.968;2022-12-10T04:53:52;1.00;99.90
16829;DHT22;8531;48.078;11.968;2022-12-10T04:56:18;0.90;99.90
16829;DHT22;8531;48.078;11.968;2022-12-10T04:58:44;0.90;99.90
16829;DHT22;8531;48.078;11.968;2022-12-10T05:01:11;0.90;99.90
16829;DHT22;8531;48.078;11.968;2022-12-10T05:03:40;0.90;99.90
16829;DHT22;8531;48.078;11.968;2022-12-10T05:06:09;0.90;99.90
16829;DHT22;8531;48.078;11.968;2022-12-10T05:08:36;1.00;99.90
16829;DHT22;8531;48.078;11.968;2022-12-10T05:11:07;1.00;99.90
16829;DHT22;8531;48.078;11.968;2022-12-10T05:13:34;1.00;99.90
16829;DHT22;8531;48.078;11.968;2022-12-10T05:16:04;1.00;99.90
16829;DHT22;8531;48.078;11.968;2022-12-10T05:18:31;1.00;99.90
16829;DHT22;8531;48.078;11.968;2022-12-10T05:21:05;1.00;99.90
16829;DHT22;8531;48.078;11.968;2022-12-10T05:23:32;1.00;99.90
16829;DHT22;8531;48.078;11.968;2022-12-10T05:26:11;1.00;99.90
16829;DHT22;8531;48.078;11.968;2022-12-10T05:28:40;0.90;99.90
16829;DHT22;8531;48.078;11.968;2022-12-10T05:31:29;1.00;99.90
16829;DHT22;8531;48.078;11.968;2022-12-10T05:33:56;1.00;99.90
16829;DHT22;8531;48.078;11.968;2022-12-10T05:36:25;1.10;99.90
16829;DHT22;8531;48.078;11.968;2022-12-10T05:38:51;1.10;99.90
16829;DHT22;8531;48.078;11.968;2022-12-10T05:41:20;1.00;99.90
16829;DHT22;8531;48.078;11.968;2022-12-10T05:43:46;1.00;99.90
16829;DHT22;8531;48.078;11.968;2022-12-10T05:46:15;1.00;99.90
16829;DHT22;8531;48.078;11.968;2022-12-10T05:48:41;1.00;99.90
16829;DHT22;8531;48.078;11.968;2022-12-10T05:51:10;1.00;99.90
16829;DHT22;8531;48.078;11.968;2022-12-10T05:53:37;1.00;99.90
16829;DHT22;8531;48.078;11.968;2022-12-10T05:56:05;1.00;99.90
16829;DHT22;8531;48.078;11.968;2022-12-10T05:58:32;1.00;99.90
16829;DHT22;8531;48.078;11.968;2022-12-10T06:00:58;1.00;99.90
16829;DHT22;8531;48.078;11.968;2022-12-10T06:03:26;1.00;99.90
16829;DHT22;8531;48.078;11.968;2022-12-10T06:05:52;1.00;99.90
16829;DHT22;8531;48.078;11.968;2022-12-10T06:08:18;0.90;99.90
16829;DHT22;8531;48.078;11.968;2022-12-10T06:10:44;1.00;99.90
16829;DHT22;8531;48.078;11.968;2022-12-10T06:13:10;1.00;99.90
16829;DHT22;8531;48.078;11.968;2022-12-10T06:15:39;1.00;99.90
16829;DHT22;8531;48.078;11.968;2022-12-10T06:18:05;1.00;99.90
16829;DHT22;8531;48.078;11.968;2022-12-10T06:20:31;1.00;99.90
16829;DHT22;8531;48.078;11.968;2022-12-10T06:22:56;1.00;99.90
16829;DHT22;8531;48.078;11.968;2022-12-10T06:25:22;1.10;99.90
16829;DHT22;8531;48.078;11.968;2022-12-10T06:27:48;1.20;99.90
16829;DHT22;8531;48.078;11.968;2022-12-10T06:30:14;1.10;99.90
16829;DHT22;8531;48.078;11.968;2022-12-10T06:32:39;1.00;99.90
16829;DHT22;8531;48.078;11.968;2022-12-10T06:35:08;1.00;99.90
16829;DHT22;8531;48.078;11.968;2022-12-10T06:37:34;1.00;99.90
16829;DHT22;8531;48.078;11.968;2022-12-10T06:40:00;1.10;99.90
16829;DHT22;8531;48.078;11.968;2022-12-10T06:42:25;1.10;99.90
16829;DHT22;8531;48.078;11.968;2022-12-10T06:44:51;1.10;99.90
16829;DHT22;8531;48.078;11.968;2022-12-10T06:47:17;1.10;99.90
16829;DHT22;8531;48.078;11.968;2022-12-10T06:49:42;1.00;99.90
16829;DHT22;8531;48.078;11.968;2022-12-10T06:52:08;1.10;99.90
16829;DHT22;8531;48.078;11.968;2022-12-10T06:54:34;1.00;99.90
16829;DHT22;8531;48.078;11.968;2022-12-10T06:57:00;1.00;99.90
16829;DHT22;8531;48.078;11.968;2022-12-10T06:59:25;1.00;99.90
16829;DHT22;8531;48.078;11.968;2022-12-10T07:01:51;0.90;99.90
16829;DHT22;8531;48.078;11.968;2022-12-10T07:04:17;0.90;99.90
16829;DHT22;8531;48.078;11.968;2022-12-10T07:06:43;0.80;99.90
16829;DHT22;8531;48.078;11.968;2022-12-10T07:09:09;0.90;99.90
16829;DHT22;8531;48.078;11.968;2022-12-10T07:11:37;1.00;99.90
16829;DHT22;8531;48.078;11.968;2022-12-10T07:14:03;1.00;99.90
16829;DHT22;8531;48.078;11.968;2022-12-10T07:16:31;1.00;99.90
16829;DHT22;8531;48.078;11.968;2022-12-10T07:18:58;1.00;99.90
16829;DHT22;8531;48.078;11.968;2022-12-10T07:21:34;1.00;99.90
16829;DHT22;8531;48.078;11.968;2022-12-10T07:24:05;0.90;99.90
16829;DHT22;8531;48.078;11.968;2022-12-10T07:26:33;0.90;99.90
16829;DHT22;8531;48.078;11.968;2022-12-10T07:29:00;0.90;99.90
16829;DHT22;8531;48.078;11.968;2022-12-10T07:31:26;0.90;99.90
16829;DHT22;8531;48.078;11.968;2022-12-10T07:33:54;0.90;99.90
16829;DHT22;8531;48.078;11.968;2022-12-10T07:36:21;0.90;99.90
16829;DHT22;8531;48.078;11.968;2022-12-10T07:38:51;0.90;99.90
16829;DHT22;8531;48.078;11.968;2022-12-10T07:41:18;1.00;99.90
16829;DHT22;8531;48.078;11.968;2022-12-10T07:43:44;1.00;99.90
16829;DHT22;8531;48.078;11.968;2022-12-10T07:46:15;1.10;99.90
16829;DHT22;8531;48.078;11.968;2022-12-10T07:48:42;1.10;99.90
16829;DHT22;8531;48.078;11.968;2022-12-10T07:51:08;1.20;99.90
16829;DHT22;8531;48.078;11.968;2022-12-10T07:53:34;1.10;99.90
16829;DHT22;8531;48.078;11.968;2022-12-10T07:56:00;1.20;99.90
16829;DHT22;8531;48.078;11.968;2022-12-10T07:58:27;1.10;99.90
16829;DHT22;8531;48.078;11.968;2022-12-10T08:00:52;1.10;99.90
16829;DHT22;8531;48.078;11.968;2022-12-10T08:03:18;1.10;99.90
16829;DHT22;8531;48.078;11.968;2022-12-10T08:05:44;1.10;99.90
16829;DHT22;8531;48.078;11.968;2022-12-10T08:08:10;1.20;99.90
16829;DHT22;8531;48.078;11.968;2022-12-10T08:10:37;1.20;99.90
16829;DHT22;8531;48.078;11.968;2022-12-10T08:13:03;1.20;99.90
16829;DHT22;8531;48.078;11.968;2022-12-10T08:15:29;1.20;99.90
16829;DHT22;8531;48.078;11.968;2022-12-10T08:17:56;1.30;99.90
16829;DHT22;8531;48.078;11.968;2022-12-10T08:20:22;1.30;99.90
16829;DHT22;8531;48.078;11.968;2022-12-10T08:22:48;1.30;99.90
16829;DHT22;8531;48.078;11.968;2022-12-10T08:25:14;1.30;99.90
16829;DHT22;8531;48.078;11.968;2022-12-10T08:27:39;1.30;99.90
16829;DHT22;8531;48.078;11.968;2022-12-10T08:30:06;1.40;99.90
16829;DHT22;8531;48.078;11.968;2022-12-10T08:32:31;1.40;99.90
16829;DHT22;8531;48.078;11.968;2022-12-10T08:34:57;1.40;99.90
16829;DHT22;8531;48.078;11.968;2022-12-10T08:37:23;1.30;99.90
16829;DHT22;8531;48.078;11.968;2022-12-10T08:39:48;1.30;99.90
16829;DHT22;8531;48.078;11.968;2022-12-10T08:42:14;1.30;99.90
16829;DHT22;8531;48.078;11.968;2022-12-10T08:44:40;1.40;99.90
16829;DHT22;8531;48.078;11.968;2022-12-10T08:47:06;1.50;99.90
16829;DHT22;8531;48.078;11.968;2022-12-10T08:49:32;1.50;99.90
16829;DHT22;8531;48.078;11.968;2022-12-10T08:51:57;1.50;99.90
16829;DHT22;8531;48.078;11.968;2022-12-10T08:54:23;1.50;99.90
16829;DHT22;8531;48.078;11.968;2022-12-10T08:56:49;1.60;99.90
16829;DHT22;8531;48.078;11.968;2022-12-10T08:59:14;1.60;99.90
16829;DHT22;8531;48.078;11.968;2022-12-10T09:01:40;1.60;99.90
16829;DHT22;8531;48.078;11.968;2022-12-10T09:04:06;1.60;99.90
16829;DHT22;8531;48.078;11.968;2022-12-10T09:06:32;1.70;99.90
16829;DHT22;8531;48.078;11.968;2022-12-10T09:08:57;1.70;99.90
16829;DHT22;8531;48.078;11.968;2022-12-10T09:11:29;1.80;99.90
16829;DHT22;8531;48.078;11.968;2022-12-10T09:13:55;1.70;99.90
16829;DHT22;8531;48.078;11.968;2022-12-10T09:16:27;1.70;99.90
16829;DHT22;8531;48.078;11.968;2022-12-10T09:18:53;1.70;99.90
16829;DHT22;8531;48.078;11.968;2022-12-10T09:21:19;1.70;99.90
16829;DHT22;8531;48.078;11.968;2022-12-10T09:23:46;1.70;99.90
16829;DHT22;8531;48.078;11.968;2022-12-10T09:26:15;1.60;99.90
16829;DHT22;8531;48.078;11.968;2022-12-10T09:28:42;1.70;99.90
16829;DHT22;8531;48.078;11.968;2022-12-10T09:31:09;1.80;99.90
16829;DHT22;8531;48.078;11.968;2022-12-10T09:33:36;1.90;99.90
16829;DHT22;8531;48.078;11.968;2022-12-10T09:36:05;1.90;99.90
16829;DHT22;8531;48.078;11.968;2022-12-10T09:38:34;1.90;99.90
16829;DHT22;8531;48.078;11.968;2022-12-10T09:41:02;2.00;99.90
16829;DHT22;8531;48.078;11.968;2022-12-10T09:43:55;2.00;99.90
16829;DHT22;8531;48.078;11.968;2022-12-10T09:51:50;2.00;99.90
16829;DHT22;8531;48.078;11.968;2022-12-10T09:54:26;2.00;99.90
16829;DHT22;8531;48.078;11.968;2022-12-10T09:56:55;1.90;99.90
16829;DHT22;8531;48.078;11.968;2022-12-10T09:59:44;1.90;99.90
16829;DHT22;8531;48.078;11.968;2022-12-10T10:02:26;1.90;99.90
16829;DHT22;8531;48.078;11.968;2022-12-10T10:08:14;1.70;99.90
16829;DHT22;8531;48.078;11.968;2022-12-10T10:10:42;1.70;99.90
16829;DHT22;8531;48.078;11.968;2022-12-10T10:13:34;1.80;99.90
16829;DHT22;8531;48.078;11.968;2022-12-10T10:18:56;1.80;99.90
16829;DHT22;8531;48.078;11.968;2022-12-10T10:21:29;1.80;99.90
16829;DHT22;8531;48.078;11.968;2022-12-10T10:23:57;1.80;99.90
16829;DHT22;8531;48.078;11.968;2022-12-10T10:26:25;1.90;99.90
16829;DHT22;8531;48.078;11.968;2022-12-10T10:29:05;1.90;99.90
16829;DHT22;8531;48.078;11.968;2022-12-10T10:31:34;1.90;99.90
16829;DHT22;8531;48.078;11.968;2022-12-10T10:34:05;1.90;99.90
16829;DHT22;8531;48.078;11.968;2022-12-10T10:36:36;2.00;99.90
16829;DHT22;8531;48.078;11.968;2022-12-10T10:39:29;2.00;99.90
16829;DHT22;8531;48.078;11.968;2022-12-10T10:41:57;2.00;99.90
16829;DHT22;8531;48.078;11.968;2022-12-10T10:44:27;2.10;99.90
16829;DHT22;8531;48.078;11.968;2022-12-10T10:46:56;2.10;99.90
16829;DHT22;8531;48.078;11.968;2022-12-10T10:49:30;2.00;99.90
16829;DHT22;8531;48.078;11.968;2022-12-10T10:52:13;1.90;99.90
16829;DHT22;8531;48.078;11.968;2022-12-10T10:54:41;1.90;99.90
16829;DHT22;8531;48.078;11.968;2022-12-10T10:59:46;1.90;99.90
16829;DHT22;8531;48.078;11.968;2022-12-10T11:02:22;1.90;99.90
16829;DHT22;8531;48.078;11.968;2022-12-10T11:04:52;1.90;99.90
16829;DHT22;8531;48.078;11.968;2022-12-10T11:07:34;2.00;99.90
16829;DHT22;8531;48.078;11.968;2022-12-10T11:10:01;2.00;99.90
16829;DHT22;8531;48.078;11.968;2022-12-10T11:12:54;2.00;99.90
16829;DHT22;8531;48.078;11.968;2022-12-10T11:17:54;1.80;99.90
16829;DHT22;8531;48.078;11.968;2022-12-10T11:22:56;1.80;99.90
16829;DHT22;8531;48.078;11.968;2022-12-10T11:25:45;1.70;99.90
16829;DHT22;8531;48.078;11.968;2022-12-10T11:28:42;1.80;99.90
16829;DHT22;8531;48.078;11.968;2022-12-10T11:31:26;1.80;99.90
16829;DHT22;8531;48.078;11.968;2022-12-10T11:40:09;1.80;99.90
16829;DHT22;8531;48.078;11.968;2022-12-10T11:48:32;1.90;99.90
16829;DHT22;8531;48.078;11.968;2022-12-10T11:51:02;1.90;99.90
16829;DHT22;8531;48.078;11.968;2022-12-10T11:59:31;1.90;99.90
16829;DHT22;8531;48.078;11.968;2022-12-10T12:07:51;1.80;99.90
16829;DHT22;8531;48.078;11.968;2022-12-10T12:15:47;1.90;99.90
16829;DHT22;8531;48.078;11.968;2022-12-10T12:18:16;2.00;99.90
16829;DHT22;8531;48.078;11.968;2022-12-10T12:23:50;2.00;99.90
16829;DHT22;8531;48.078;11.968;2022-12-10T12:26:39;2.00;99.90
16829;DHT22;8531;48.078;11.968;2022-12-10T12:29:20;1.90;99.90
16829;DHT22;8531;48.078;11.968;2022-12-10T12:31:54;1.80;99.90
16829;DHT22;8531;48.078;11.968;2022-12-10T12:34:29;1.90;99.90
16829;DHT22;8531;48.078;11.968;2022-12-10T12:36:57;1.90;99.90
16829;DHT22;8531;48.078;11.968;2022-12-10T12:42:08;1.80;99.90
16829;DHT22;8531;48.078;11.968;2022-12-10T12:49:56;1.90;99.90
16829;DHT22;8531;48.078;11.968;2022-12-10T12:52:28;1.80;99.90
16829;DHT22;8531;48.078;11.968;2022-12-10T12:55:02;1.80;99.90
16829;DHT22;8531;48.078;11.968;2022-12-10T12:57:39;1.80;99.90
16829;DHT22;8531;48.078;11.968;2022-12-10T13:00:17;1.90;99.90
16829;DHT22;8531;48.078;11.968;2022-12-10T13:03:07;2.00;99.90
16829;DHT22;8531;48.078;11.968;2022-12-10T13:05:39;2.10;99.90
16829;DHT22;8531;48.078;11.968;2022-12-10T13:08:28;2.20;99.90
16829;DHT22;8531;48.078;11.968;2022-12-10T13:13:41;2.20;99.90
16829;DHT22;8531;48.078;11.968;2022-12-10T13:16:47;2.10;99.90
16829;DHT22;8531;48.078;11.968;2022-12-10T13:24:25;2.30;99.90
16829;DHT22;8531;48.078;11.968;2022-12-10T13:30:00;2.10;99.90
16829;DHT22;8531;48.078;11.968;2022-12-10T13:46:32;1.80;99.90
16829;DHT22;8531;48.078;11.968;2022-12-10T13:49:03;1.80;99.90
16829;DHT22;8531;48.078;11.968;2022-12-10T13:51:39;1.80;99.90
16829;DHT22;8531;48.078;11.968;2022-12-10T13:59:48;1.90;99.90
16829;DHT22;8531;48.078;11.968;2022-12-10T14:08:04;1.80;99.90
16829;DHT22;8531;48.078;11.968;2022-12-10T14:10:33;1.90;99.90
16829;DHT22;8531;48.078;11.968;2022-12-10T14:13:02;1.90;99.90
16829;DHT22;8531;48.078;11.968;2022-12-10T14:15:28;1.90;99.90
16829;DHT22;8531;48.078;11.968;2022-12-10T14:18:10;1.90;99.90
16829;DHT22;8531;48.078;11.968;2022-12-10T14:20:42;1.90;99.90
16829;DHT22;8531;48.078;11.968;2022-12-10T14:23:30;1.90;99.90
16829;DHT22;8531;48.078;11.968;2022-12-10T14:26:29;1.80;99.90
16829;DHT22;8531;48.078;11.968;2022-12-10T14:29:01;1.90;99.90
16829;DHT22;8531;48.078;11.968;2022-12-10T14:31:42;1.90;99.90
16829;DHT22;8531;48.078;11.968;2022-12-10T14:34:14;1.80;99.90
16829;DHT22;8531;48.078;11.968;2022-12-10T14:36:52;1.80;99.90
16829;DHT22;8531;48.078;11.968;2022-12-10T14:39:25;1.70;99.90
16829;DHT22;8531;48.078;11.968;2022-12-10T14:41:54;1.80;99.90
16829;DHT22;8531;48.078;11.968;2022-12-10T14:44:21;1.80;99.90
16829;DHT22;8531;48.078;11.968;2022-12-10T14:46:48;1.80;99.90
16829;DHT22;8531;48.078;11.968;2022-12-10T14:49:26;1.80;99.90
16829;DHT22;8531;48.078;11.968;2022-12-10T14:51:52;1.70;99.90
16829;DHT22;8531;48.078;11.968;2022-12-10T14:54:28;1.80;99.90
16829;DHT22;8531;48.078;11.968;2022-12-10T14:56:55;1.70;99.90
16829;DHT22;8531;48.078;11.968;2022-12-10T14:59:28;1.60;99.90
16829;DHT22;8531;48.078;11.968;2022-12-10T15:01:59;1.60;99.90
16829;DHT22;8531;48.078;11.968;2022-12-10T15:04:40;1.60;99.90
16829;DHT22;8531;48.078;11.968;2022-12-10T15:07:17;1.60;99.90
16829;DHT22;8531;48.078;11.968;2022-12-10T15:09:43;1.60;99.90
16829;DHT22;8531;48.078;11.968;2022-12-10T15:12:27;1.60;99.90
16829;DHT22;8531;48.078;11.968;2022-12-10T15:14:55;1.50;99.90
16829;DHT22;8531;48.078;11.968;2022-12-10T15:18:16;1.50;99.90
16829;DHT22;8531;48.078;11.968;2022-12-10T15:20:30;1.50;99.90
16829;DHT22;8531;48.078;11.968;2022-12-10T15:25:51;1.40;99.90
16829;DHT22;8531;48.078;11.968;2022-12-10T15:28:31;1.50;99.90
16829;DHT22;8531;48.078;11.968;2022-12-10T15:33:46;1.40;99.90
16829;DHT22;8531;48.078;11.968;2022-12-10T15:36:59;1.30;99.90
16829;DHT22;8531;48.078;11.968;2022-12-10T15:39:32;1.30;99.90
16829;DHT22;8531;48.078;11.968;2022-12-10T15:42:05;1.20;99.90
16829;DHT22;8531;48.078;11.968;2022-12-10T15:44:37;1.20;99.90
16829;DHT22;8531;48.078;11.968;2022-12-10T15:47:17;1.00;99.90
16829;DHT22;8531;48.078;11.968;2022-12-10T15:49:44;1.10;99.90
16829;DHT22;8531;48.078;11.968;2022-12-10T15:52:18;1.00;99.90
16829;DHT22;8531;48.078;11.968;2022-12-10T15:54:46;1.00;99.90
16829;DHT22;8531;48.078;11.968;2022-12-10T15:57:23;1.00;99.90
16829;DHT22;8531;48.078;11.968;2022-12-10T15:59:50;1.00;99.90
16829;DHT22;8531;48.078;11.968;2022-12-10T16:04:48;0.80;99.90
16829;DHT22;8531;48.078;11.968;2022-12-10T16:07:14;0.90;99.90
16829;DHT22;8531;48.078;11.968;2022-12-10T16:09:41;0.80;99.90
16829;DHT22;8531;48.078;11.968;2022-12-10T16:12:17;0.90;99.90
16829;DHT22;8531;48.078;11.968;2022-12-10T16:14:54;0.80;99.90
16829;DHT22;8531;48.078;11.968;2022-12-10T16:17:26;0.80;99.90
16829;DHT22;8531;48.078;11.968;2022-12-10T16:19:53;0.80;99.90
16829;DHT22;8531;48.078;11.968;2022-12-10T16:22:21;0.70;99.90
16829;DHT22;8531;48.078;11.968;2022-12-10T16:24:47;0.70;99.90
16829;DHT22;8531;48.078;11.968;2022-12-10T16:27:14;0.60;99.90
16829;DHT22;8531;48.078;11.968;2022-12-10T16:29:41;0.70;99.90
16829;DHT22;8531;48.078;11.968;2022-12-10T16:32:11;0.70;99.90
16829;DHT22;8531;48.078;11.968;2022-12-10T16:34:38;0.70;99.90
16829;DHT22;8531;48.078;11.968;2022-12-10T16:37:04;0.70;99.90
16829;DHT22;8531;48.078;11.968;2022-12-10T16:39:31;0.70;99.90
16829;DHT22;8531;48.078;11.968;2022-12-10T16:41:56;0.70;99.90
16829;DHT22;8531;48.078;11.968;2022-12-10T16:44:22;0.60;99.90
16829;DHT22;8531;48.078;11.968;2022-12-10T16:46:48;0.60;99.90
16829;DHT22;8531;48.078;11.968;2022-12-10T16:49:13;0.60;99.90
16829;DHT22;8531;48.078;11.968;2022-12-10T16:51:40;0.60;99.90
16829;DHT22;8531;48.078;11.968;2022-12-10T16:54:09;0.70;99.90
16829;DHT22;8531;48.078;11.968;2022-12-10T16:56:36;0.80;99.90
16829;DHT22;8531;48.078;11.968;2022-12-10T16:59:02;0.80;99.90
16829;DHT22;8531;48.078;11.968;2022-12-10T17:01:28;0.80;99.90
16829;DHT22;8531;48.078;11.968;2022-12-10T17:03:57;0.70;99.90
16829;DHT22;8531;48.078;11.968;2022-12-10T17:06:24;0.70;99.90
16829;DHT22;8531;48.078;11.968;2022-12-10T17:08:50;0.70;99.90
16829;DHT22;8531;48.078;11.968;2022-12-10T17:11:25;0.70;99.90
16829;DHT22;8531;48.078;11.968;2022-12-10T17:14:33;0.60;99.90
16829;DHT22;8531;48.078;11.968;2022-12-10T17:17:00;0.60;99.90
16829;DHT22;8531;48.078;11.968;2022-12-10T17:19:32;0.60;99.90
16829;DHT22;8531;48.078;11.968;2022-12-10T17:21:58;0.50;99.90
16829;DHT22;8531;48.078;11.968;2022-12-10T17:24:24;0.50;99.90
16829;DHT22;8531;48.078;11.968;2022-12-10T17:26:52;0.50;99.90
16829;DHT22;8531;48.078;11.968;2022-12-10T17:29:20;0.50;99.90
16829;DHT22;8531;48.078;11.968;2022-12-10T17:31:47;0.50;99.90
16829;DHT22;8531;48.078;11.968;2022-12-10T17:34:13;0.50;99.90
16829;DHT22;8531;48.078;11.968;2022-12-10T17:36:40;0.50;99.90
16829;DHT22;8531;48.078;11.968;2022-12-10T17:39:08;0.40;99.90
16829;DHT22;8531;48.078;11.968;2022-12-10T17:41:36;0.50;99.90
16829;DHT22;8531;48.078;11.968;2022-12-10T17:44:03;0.50;99.90
16829;DHT22;8531;48.078;11.968;2022-12-10T17:46:29;0.50;99.90
16829;DHT22;8531;48.078;11.968;2022-12-10T17:48:55;0.40;99.90
16829;DHT22;8531;48.078;11.968;2022-12-10T17:51:21;0.50;99.90
16829;DHT22;8531;48.078;11.968;2022-12-10T17:53:47;0.50;99.90
16829;DHT22;8531;48.078;11.968;2022-12-10T17:56:18;0.50;99.90
16829;DHT22;8531;48.078;11.968;2022-12-10T17:58:47;0.50;99.90
16829;DHT22;8531;48.078;11.968;2022-12-10T18:01:13;0.50;99.90
16829;DHT22;8531;48.078;11.968;2022-12-10T18:03:40;0.50;99.90
16829;DHT22;8531;48.078;11.968;2022-12-10T18:06:26;0.40;99.90
16829;DHT22;8531;48.078;11.968;2022-12-10T18:08:54;0.30;99.90